Terminal Aerodrome Forecast
Issued by NWS

Home | Current Version | Previous Version | Text Only | Print | Product List | Glossary On
Versions: 1 2 3 4 5 6 7 8 9 10 11 12 13
000
FTUS45 KRIW 301700
TAFCPR
TAF
KCPR 301720Z 3018/3118 22020G30KT P6SM SCT110
     FM301900 22025G35KT P6SM VCTS SCT080CB BKN120
     FM310000 23017KT P6SM VCSH BKN080
     FM310400 23011KT P6SM FEW070
     FM311000 22010KT P6SM VCSH SCT060 BKN120=

USA.gov is the U.S. government's official web portal to all federal, state and local government web resources and services.